Time;durP1;ratioP1;P1;durP2;ratioP2;P2;SDS_P1;SDS_P2;PMS_P1;PMS_P2;Temp;Humidity;BMP_temperature;BMP_pressure;BME280_temperature;BME280_humidity;BME280_pressure;Samples;Min_cycle;Max_cycle;Signal;HPM_P1;HPM_P2
2021/06/15 00:02:09;;;;;;;49.60;31.75;;;19.60;99.90;;;;;;5055726;28;20025;-88
2021/06/15 00:04:35;;;;;;;41.88;31.48;;;19.60;99.90;;;;;;5055734;28;20025;-88
2021/06/15 00:07:01;;;;;;;46.80;31.92;;;19.50;99.90;;;;;;5056778;28;20025;-88
2021/06/15 00:09:26;;;;;;;45.40;32.58;;;19.50;99.90;;;;;;5057324;28;20078;-88
2021/06/15 00:11:52;;;;;;;41.70;31.65;;;19.50;99.90;;;;;;5077085;28;20021;-89
2021/06/15 00:14:18;;;;;;;44.08;31.67;;;19.50;99.90;;;;;;5078220;28;20077;-89
2021/06/15 00:16:43;;;;;;;39.13;28.38;;;19.50;99.90;;;;;;5079017;28;20009;-89
2021/06/15 00:19:09;;;;;;;33.70;26.98;;;19.40;99.90;;;;;;5079559;28;20531;-89
2021/06/15 00:21:35;;;;;;;33.60;25.92;;;19.30;99.90;;;;;;5069514;28;20045;-89
2021/06/15 00:24:00;;;;;;;35.45;26.70;;;19.30;99.90;;;;;;5056702;28;20025;-88
2021/06/15 00:26:26;;;;;;;41.58;28.33;;;19.30;99.90;;;;;;5056120;28;20053;-88
2021/06/15 00:28:51;;;;;;;40.20;27.13;;;19.20;99.90;;;;;;5054392;28;20120;-88
2021/06/15 00:31:19;;;;;;;37.45;28.08;;;19.10;99.90;;;;;;5056332;28;20040;-88
2021/06/15 00:33:44;;;;;;;43.83;30.75;;;19.10;99.90;;;;;;5054277;28;20370;-88
2021/06/15 00:36:10;;;;;;;40.95;31.38;;;19.00;99.90;;;;;;5054869;28;20029;-88
2021/06/15 00:38:36;;;;;;;46.50;33.45;;;18.90;99.90;;;;;;5054873;28;20033;-88
2021/06/15 00:41:01;;;;;;;50.47;34.78;;;18.90;99.90;;;;;;5054858;28;20608;-88
2021/06/15 00:43:27;;;;;;;51.10;36.05;;;18.90;99.90;;;;;;5054944;28;20029;-88
2021/06/15 00:45:53;;;;;;;54.97;37.63;;;18.90;99.90;;;;;;5054617;28;20016;-89
2021/06/15 00:48:32;;;;;;;49.83;36.70;;;18.80;99.90;;;;;;5054470;28;20029;-88
2021/06/15 00:50:59;;;;;;;55.65;39.30;;;18.60;99.90;;;;;;5055670;28;20024;-89
2021/06/15 00:53:26;;;;;;;52.38;40.30;;;18.60;99.90;;;;;;5055158;28;20032;-88
2021/06/15 00:55:53;;;;;;;57.33;39.38;;;18.60;99.90;;;;;;5055628;28;20024;-88
2021/06/15 00:58:19;;;;;;;56.65;40.10;;;18.70;99.90;;;;;;5054482;28;20025;-88
2021/06/15 01:00:45;;;;;;;53.67;40.13;;;18.80;99.90;;;;;;5054375;28;20497;-88
2021/06/15 01:03:11;;;;;;;61.45;44.63;;;18.70;99.90;;;;;;5054491;28;20024;-88
2021/06/15 01:05:37;;;;;;;63.95;45.10;;;18.60;99.90;;;;;;5054327;28;20001;-88
2021/06/15 01:08:07;;;;;;;70.50;48.92;;;18.60;99.90;;;;;;5054349;28;20021;-88
2021/06/15 01:10:53;;;;;;;62.35;45.17;;;18.70;99.90;;;;;;5054293;28;20032;-88
2021/06/15 01:13:37;;;;;;;65.47;47.92;;;18.70;99.90;;;;;;5054408;28;20120;-88
2021/06/15 01:16:18;;;;;;;70.88;49.45;;;18.70;99.90;;;;;;5054312;28;20025;-88
2021/06/15 01:19:00;;;;;;;81.07;54.97;;;18.70;99.90;;;;;;5054391;28;20025;-88
2021/06/15 01:21:27;;;;;;;85.95;57.55;;;18.70;99.90;;;;;;5053971;28;20082;-88
2021/06/15 01:24:08;;;;;;;79.22;56.97;;;18.70;99.90;;;;;;5054113;28;20559;-89
2021/06/15 01:27:19;;;;;;;84.53;60.83;;;18.70;99.90;;;;;;5053806;28;20041;-88
2021/06/15 01:29:46;;;;;;;89.90;61.15;;;18.80;99.90;;;;;;5038740;28;20083;-88
2021/06/15 01:32:28;;;;;;;89.10;62.60;;;18.70;99.90;;;;;;5054747;28;20025;-88
2021/06/15 01:34:55;;;;;;;89.00;64.18;;;18.70;99.90;;;;;;5053926;28;20359;-89
2021/06/15 01:37:51;;;;;;;86.32;65.18;;;18.70;99.90;;;;;;5054050;28;20044;-88
2021/06/15 01:40:22;;;;;;;97.05;68.60;;;18.80;99.90;;;;;;5044565;28;20086;-88
2021/06/15 01:42:54;;;;;;;100.57;68.90;;;18.90;99.90;;;;;;5054731;28;20021;-88
2021/06/15 01:45:36;;;;;;;94.68;67.38;;;18.90;99.90;;;;;;5053694;28;20019;-88
2021/06/15 01:48:05;;;;;;;;;;;18.80;99.90;;;;;;5054135;28;20029;-88
2021/06/15 01:50:34;;;;;;;91.00;65.50;;;18.70;99.90;;;;;;5053755;28;20598;-89
2021/06/15 01:53:03;;;;;;;90.95;64.78;;;18.50;99.90;;;;;;5054801;28;20017;-89
2021/06/15 01:55:31;;;;;;;93.20;64.85;;;18.60;99.90;;;;;;5053640;28;20032;-88
2021/06/15 01:57:57;;;;;;;94.45;66.70;;;18.50;99.90;;;;;;5053572;28;20025;-88
2021/06/15 02:00:25;;;;;;;95.90;68.70;;;18.50;99.90;;;;;;5055859;28;20032;-88
2021/06/15 02:02:53;;;;;;;95.88;70.68;;;18.50;99.90;;;;;;5056359;28;20047;-89
2021/06/15 02:05:25;;;;;;;95.90;71.25;;;18.50;99.90;;;;;;5055602;28;20005;-88
2021/06/15 02:07:53;;;;;;;100.53;70.88;;;18.50;99.90;;;;;;5054179;28;20021;-88
2021/06/15 02:10:20;;;;;;;100.95;70.18;;;18.40;99.90;;;;;;5053558;28;20025;-88
2021/06/15 02:12:51;;;;;;;101.25;75.07;;;18.40;99.90;;;;;;5053943;28;20104;-88
2021/06/15 02:15:17;;;;;;;109.85;70.65;;;18.40;99.90;;;;;;5056748;28;20075;-88
2021/06/15 02:17:47;;;;;;;95.75;69.82;;;18.40;99.90;;;;;;5057583;28;20482;-88
2021/06/15 02:20:16;;;;;;;98.05;69.57;;;18.30;99.90;;;;;;5057086;28;20350;-89
2021/06/15 02:22:47;;;;;;;96.82;68.78;;;18.20;99.90;;;;;;5057042;28;20032;-89
2021/06/15 02:25:13;;;;;;;95.05;68.20;;;18.20;99.90;;;;;;5057294;28;20401;-88
2021/06/15 02:27:40;;;;;;;93.55;66.57;;;18.30;99.90;;;;;;5057491;28;20126;-88
2021/06/15 02:30:06;;;;;;;102.38;70.38;;;18.30;99.90;;;;;;5057298;28;20550;-88
2021/06/15 02:32:35;;;;;;;97.90;68.32;;;18.30;99.90;;;;;;5057270;28;20363;-88
2021/06/15 02:35:06;;;;;;;100.13;68.82;;;18.30;99.90;;;;;;5057188;28;20029;-88
2021/06/15 02:37:56;;;;;;;99.47;68.95;;;18.30;99.90;;;;;;5058464;28;20020;-88
2021/06/15 02:40:26;;;;;;;102.03;69.47;;;18.30;99.90;;;;;;5057072;28;20056;-88
2021/06/15 02:42:54;;;;;;;98.13;69.22;;;18.30;99.90;;;;;;5057423;28;20031;-88
2021/06/15 02:45:23;;;;;;;102.57;71.45;;;18.20;99.90;;;;;;5057157;28;20025;-88
2021/06/15 02:47:52;;;;;;;108.15;72.75;;;18.10;99.90;;;;;;5056965;28;20021;-88
2021/06/15 02:50:19;;;;;;;100.43;73.43;;;18.10;99.90;;;;;;5057127;28;20040;-88
2021/06/15 02:53:07;;;;;;;99.07;72.93;;;18.10;99.90;;;;;;5056772;28;20025;-88
2021/06/15 02:55:37;;;;;;;100.63;72.85;;;18.30;99.90;;;;;;5051338;28;20032;-88
2021/06/15 02:58:03;;;;;;;103.15;75.93;;;18.30;99.90;;;;;;5056784;28;20028;-88
2021/06/15 03:00:30;;;;;;;104.18;74.03;;;18.30;99.90;;;;;;5056767;28;20056;-88
2021/06/15 03:02:56;;;;;;;113.05;79.55;;;18.30;99.90;;;;;;5057829;28;20047;-88
2021/06/15 03:05:22;;;;;;;100.10;76.22;;;18.30;99.90;;;;;;5056347;28;20036;-88
2021/06/15 03:07:48;;;;;;;103.28;75.70;;;18.40;99.90;;;;;;5056539;28;20033;-88
2021/06/15 03:10:15;;;;;;;99.50;72.97;;;18.30;99.90;;;;;;5056628;28;20064;-88
2021/06/15 03:12:47;;;;;;;97.30;72.35;;;18.20;99.90;;;;;;5056819;28;20090;-89
2021/06/15 03:15:17;;;;;;;102.70;71.32;;;18.30;99.90;;;;;;5056415;28;20029;-88
2021/06/15 03:17:53;;;;;;;96.10;67.75;;;18.20;99.90;;;;;;5056476;28;20410;-88
2021/06/15 03:20:23;;;;;;;92.47;68.45;;;18.10;99.90;;;;;;5056226;28;20029;-89
2021/06/15 03:23:17;;;;;;;91.95;65.82;;;18.20;99.90;;;;;;5056091;28;20036;-88
2021/06/15 03:25:43;;;;;;;88.10;64.43;;;18.10;99.90;;;;;;5055988;28;20060;-88
2021/06/15 03:28:24;;;;;;;90.85;65.57;;;18.10;99.90;;;;;;5056344;28;20024;-88
2021/06/15 03:30:52;;;;;;;92.20;67.72;;;18.00;99.90;;;;;;5039595;28;20052;-88
2021/06/15 03:33:19;;;;;;;98.90;67.13;;;18.10;99.90;;;;;;5056459;28;20036;-89
2021/06/15 03:35:50;;;;;;;91.63;67.10;;;18.20;99.90;;;;;;5055243;28;20032;-88
2021/06/15 03:38:17;;;;;;;88.80;64.78;;;18.20;99.90;;;;;;5055190;28;20402;-88
2021/06/15 03:40:47;;;;;;;90.30;62.15;;;18.20;99.90;;;;;;5055786;28;20025;-89
2021/06/15 03:43:14;;;;;;;89.45;60.10;;;18.10;99.90;;;;;;5056655;28;20052;-89
2021/06/15 03:45:43;;;;;;;83.07;60.97;;;18.10;99.90;;;;;;5055886;28;20024;-88
2021/06/15 03:48:09;;;;;;;86.82;60.40;;;18.10;99.90;;;;;;5057128;28;20031;-88
2021/06/15 03:50:37;;;;;;;82.57;61.92;;;18.10;99.90;;;;;;5056561;28;20028;-88
2021/06/15 03:53:07;;;;;;;83.75;61.47;;;18.10;99.90;;;;;;5055717;28;20052;-88
2021/06/15 03:55:33;;;;;;;92.25;66.38;;;18.10;99.90;;;;;;5055873;28;20063;-88
2021/06/15 03:58:01;;;;;;;93.63;63.30;;;18.30;99.90;;;;;;5055826;28;20705;-88
2021/06/15 04:00:28;;;;;;;80.25;59.90;;;18.40;99.90;;;;;;5055407;28;20029;-87
2021/06/15 04:02:57;;;;;;;88.28;60.95;;;18.40;99.90;;;;;;5056396;28;20048;-87
2021/06/15 04:05:29;;;;;;;85.00;58.28;;;18.40;99.90;;;;;;5072139;28;20386;-88
2021/06/15 04:08:01;;;;;;;75.63;56.20;;;18.50;99.90;;;;;;5078723;28;20124;-88
2021/06/15 04:10:28;;;;;;;;;;;18.40;99.90;;;;;;5078943;28;20035;-88
2021/06/15 04:12:55;;;;;;;74.70;53.30;;;18.50;99.90;;;;;;5078942;28;19931;-88
2021/06/15 04:15:25;;;;;;;70.72;51.85;;;18.50;99.90;;;;;;5075194;28;20037;-88
2021/06/15 04:17:57;;;;;;;74.80;51.25;;;18.40;99.90;;;;;;5056713;28;20087;-88
2021/06/15 04:20:26;;;;;;;66.05;49.47;;;18.40;99.90;;;;;;5055470;28;20029;-88
2021/06/15 04:22:53;;;;;;;70.07;48.83;;;18.40;99.90;;;;;;5055465;28;20081;-88
2021/06/15 04:25:22;;;;;;;68.40;48.22;;;18.40;99.90;;;;;;5055150;28;20087;-88
2021/06/15 04:27:49;;;;;;;67.80;49.20;;;18.50;99.90;;;;;;5055499;28;20035;-88
2021/06/15 04:30:18;;;;;;;65.55;49.75;;;18.70;99.90;;;;;;5054414;28;20029;-89
2021/06/15 04:32:56;;;;;;;66.63;49.88;;;18.70;99.90;;;;;;5054164;28;20032;-89
2021/06/15 04:35:37;;;;;;;70.13;51.28;;;18.70;99.90;;;;;;5053651;28;20039;-89
2021/06/15 04:38:21;;;;;;;70.90;50.20;;;18.70;99.90;;;;;;5054336;28;20029;-89
2021/06/15 04:40:57;;;;;;;64.57;49.65;;;18.70;99.90;;;;;;5055695;28;20390;-89
2021/06/15 04:43:37;;;;;;;73.82;49.80;;;18.70;99.90;;;;;;5055022;28;20381;-89
2021/06/15 04:46:17;;;;;;;62.17;44.92;;;18.70;99.90;;;;;;5054927;28;20021;-88
2021/06/15 04:48:46;;;;;;;61.53;44.05;;;18.60;99.90;;;;;;5055961;28;20031;-88
2021/06/15 04:51:12;;;;;;;59.53;42.78;;;18.50;99.90;;;;;;5054542;28;20020;-88
2021/06/15 04:53:43;;;;;;;59.47;42.55;;;18.50;99.90;;;;;;5055942;28;20097;-88
2021/06/15 04:56:10;;;;;;;56.97;41.67;;;18.40;99.90;;;;;;5055959;28;20029;-87
2021/06/15 04:58:36;;;;;;;50.03;38.85;;;18.40;99.90;;;;;;5055137;28;20211;-87
2021/06/15 05:01:03;;;;;;;53.78;38.28;;;18.50;99.90;;;;;;5054989;28;20397;-87
2021/06/15 05:03:32;;;;;;;51.45;39.97;;;18.60;99.90;;;;;;5055453;28;20070;-89
2021/06/15 05:06:05;;;;;;;52.30;37.67;;;18.70;99.90;;;;;;5055180;28;20021;-85
2021/06/15 05:08:34;;;;;;;57.30;36.13;;;18.70;99.90;;;;;;5056938;28;20021;-84
2021/06/15 05:11:02;;;;;;;45.53;34.22;;;18.70;99.90;;;;;;5054256;28;20124;-84
2021/06/15 05:13:31;;;;;;;51.95;35.72;;;18.80;99.90;;;;;;5054357;28;20036;-84
2021/06/15 05:15:58;;;;;;;49.30;37.05;;;19.00;99.90;;;;;;5054714;28;20044;-84
2021/06/15 05:18:24;;;;;;;56.20;36.72;;;19.20;99.90;;;;;;5056644;28;20028;-82
2021/06/15 05:20:50;;;;;;;46.63;34.17;;;19.40;99.90;;;;;;5054704;28;20032;-82
2021/06/15 05:23:25;;;;;;;49.00;32.05;;;19.30;99.90;;;;;;5055407;28;20060;-84
2021/06/15 05:25:51;;;;;;;46.00;30.75;;;19.30;99.90;;;;;;5055466;28;20040;-84
2021/06/15 05:28:17;;;;;;;42.55;30.17;;;19.30;99.90;;;;;;5055688;28;20021;-84
2021/06/15 05:30:43;;;;;;;36.67;28.38;;;19.40;99.90;;;;;;5054701;28;20082;-84
2021/06/15 05:33:11;;;;;;;36.03;28.90;;;19.50;99.90;;;;;;5056072;28;20025;-84
2021/06/15 05:35:37;;;;;;;42.78;29.38;;;19.60;99.90;;;;;;5054467;28;20032;-84
2021/06/15 05:38:03;;;;;;;35.55;27.60;;;19.70;99.90;;;;;;5055043;28;20032;-84
2021/06/15 05:40:28;;;;;;;37.47;27.73;;;19.70;99.90;;;;;;5054610;28;20037;-84
2021/06/15 05:42:54;;;;;;;39.05;28.98;;;19.70;99.90;;;;;;5055956;28;20021;-84
2021/06/15 05:45:20;;;;;;;36.88;27.23;;;19.90;99.90;;;;;;5058553;28;20040;-83
2021/06/15 05:47:45;;;;;;;33.25;24.17;;;19.80;99.90;;;;;;5053283;28;20039;-84
2021/06/15 05:50:15;;;;;;;31.73;23.42;;;19.80;99.90;;;;;;5057758;28;20025;-83
2021/06/15 05:52:41;;;;;;;30.27;22.52;;;19.80;99.90;;;;;;5059490;28;20036;-84
2021/06/15 05:55:08;;;;;;;28.90;22.38;;;20.00;99.90;;;;;;5059108;28;20033;-84
2021/06/15 05:57:34;;;;;;;29.42;22.17;;;20.10;99.90;;;;;;5077038;28;20036;-84
2021/06/15 06:00:01;;;;;;;29.77;22.20;;;20.10;99.90;;;;;;5064384;28;20069;-85
2021/06/15 06:02:27;;;;;;;25.52;20.58;;;20.20;99.90;;;;;;5077047;28;20029;-84
2021/06/15 06:10:07;;;;;;;27.77;18.60;;;20.30;99.90;;;;;;5063512;28;20027;-83
2021/06/15 06:12:36;;;;;;;23.95;18.30;;;20.50;99.90;;;;;;5076478;28;20024;-82
2021/06/15 06:15:04;;;;;;;23.83;18.05;;;20.40;99.90;;;;;;5074225;28;20056;-83
2021/06/15 06:17:31;;;;;;;20.25;15.55;;;20.40;99.90;;;;;;5061816;28;20040;-84
2021/06/15 06:19:57;;;;;;;21.20;15.88;;;20.50;99.90;;;;;;5076475;28;20039;-84
2021/06/15 06:22:22;;;;;;;24.58;16.83;;;20.80;99.90;;;;;;5059217;28;20149;-83
2021/06/15 06:24:49;;;;;;;22.48;15.90;;;21.00;99.90;;;;;;5059861;28;20038;-86
2021/06/15 06:27:15;;;;;;;20.08;16.17;;;21.00;99.90;;;;;;5076253;28;20032;-85
2021/06/15 06:29:41;;;;;;;24.60;15.63;;;20.90;99.90;;;;;;5069015;28;20173;-80
2021/06/15 06:32:07;;;;;;;21.08;15.38;;;20.90;99.90;;;;;;5060400;28;20478;-81
2021/06/15 06:34:33;;;;;;;20.15;14.93;;;21.10;99.90;;;;;;5057597;28;20032;-87
2021/06/15 06:36:59;;;;;;;23.33;16.40;;;21.20;99.90;;;;;;5061223;28;20044;-88
2021/06/15 06:39:26;;;;;;;21.10;15.85;;;21.50;99.90;;;;;;5072527;28;20078;-88
2021/06/15 06:41:51;;;;;;;16.85;14.68;;;22.30;99.90;;;;;;5068729;28;20059;-87
2021/06/15 06:44:18;;;;;;;16.48;13.02;;;23.20;99.90;;;;;;5073117;28;20013;-89
2021/06/15 06:46:43;;;;;;;18.75;13.40;;;24.30;99.90;;;;;;5058741;28;20025;-87
2021/06/15 06:49:09;;;;;;;16.08;12.95;;;24.90;99.90;;;;;;5068395;28;20027;-88
2021/06/15 06:51:35;;;;;;;15.55;11.60;;;25.10;99.90;;;;;;5066041;28;20025;-88
2021/06/15 06:54:01;;;;;;;21.80;12.52;;;25.10;99.90;;;;;;5072789;28;20024;-87
2021/06/15 06:56:27;;;;;;;15.40;12.50;;;25.50;99.90;;;;;;5070438;28;20028;-85
2021/06/15 06:58:53;;;;;;;12.75;10.95;;;26.10;99.90;;;;;;5072307;28;20032;-87
2021/06/15 07:01:21;;;;;;;14.68;10.18;;;26.10;99.90;;;;;;5076710;28;20035;-86
2021/06/15 07:03:47;;;;;;;12.50;9.25;;;26.10;99.90;;;;;;5069468;28;20453;-84
2021/06/15 07:06:13;;;;;;;14.80;10.52;;;26.00;99.90;;;;;;5071097;28;20013;-87
2021/06/15 07:08:38;;;;;;;15.65;10.93;;;26.30;99.30;;;;;;5066195;28;20025;-86
2021/06/15 07:11:07;;;;;;;14.48;10.70;;;26.50;98.70;;;;;;5069038;28;20444;-85
2021/06/15 07:13:33;;;;;;;13.57;10.55;;;26.60;98.20;;;;;;5055031;28;20024;-86
2021/06/15 07:15:59;;;;;;;12.38;9.40;;;26.60;98.00;;;;;;5070678;28;20035;-85
2021/06/15 07:18:24;;;;;;;10.27;8.38;;;26.40;97.80;;;;;;5068091;28;20039;-85
2021/06/15 07:20:50;;;;;;;8.25;7.40;;;26.50;97.30;;;;;;5067340;28;20032;-86
2021/06/15 07:23:16;;;;;;;11.27;7.28;;;26.60;97.00;;;;;;5069991;28;20020;-88
2021/06/15 07:25:42;;;;;;;10.57;7.38;;;27.30;96.20;;;;;;5059849;28;20409;-85
2021/06/15 07:28:07;;;;;;;10.15;7.50;;;28.00;94.40;;;;;;5063336;28;20017;-84
2021/06/15 07:30:33;;;;;;;10.88;6.80;;;28.90;92.30;;;;;;5071653;28;20021;-84
2021/06/15 07:32:59;;;;;;;8.50;5.97;;;28.80;91.30;;;;;;5067370;28;20040;-84
2021/06/15 07:35:26;;;;;;;13.32;7.22;;;28.70;90.80;;;;;;5068190;28;20090;-84
2021/06/15 07:37:52;;;;;;;6.90;5.35;;;29.20;89.50;;;;;;5064000;28;20032;-85
2021/06/15 07:40:24;;;;;;;6.70;5.30;;;29.00;87.00;;;;;;5064779;28;20443;-84
2021/06/15 07:42:54;;;;;;;6.95;4.85;;;29.30;85.90;;;;;;5063854;28;20033;-84
2021/06/15 07:45:22;;;;;;;7.78;4.93;;;29.40;85.50;;;;;;5067596;28;20032;-84
2021/06/15 07:47:47;;;;;;;6.20;5.47;;;30.20;81.50;;;;;;5074380;28;20017;-84
2021/06/15 07:50:15;;;;;;;12.48;5.20;;;30.50;79.70;;;;;;5076829;28;20032;-86
2021/06/15 07:52:41;;;;;;;6.57;4.75;;;30.20;77.90;;;;;;5072375;28;20033;-83
2021/06/15 07:55:07;;;;;;;7.57;5.22;;;30.40;77.10;;;;;;5072956;28;20401;-84
2021/06/15 07:57:33;;;;;;;5.65;5.03;;;29.80;78.20;;;;;;5074410;28;20032;-83
2021/06/15 08:00:03;;;;;;;6.35;5.30;;;28.80;80.70;;;;;;5077039;28;20445;-84
2021/06/15 08:02:28;;;;;;;10.52;5.53;;;28.30;82.40;;;;;;5076064;28;20328;-84
2021/06/15 08:04:54;;;;;;;6.30;4.80;;;28.10;83.20;;;;;;5056733;28;20032;-84
2021/06/15 08:07:20;;;;;;;8.70;5.47;;;28.30;83.30;;;;;;5071751;28;20031;-84
2021/06/15 08:09:46;;;;;;;8.43;5.05;;;28.40;81.00;;;;;;5055979;28;20032;-84
2021/06/15 08:12:12;;;;;;;6.53;4.85;;;28.50;82.20;;;;;;5068895;28;20029;-84
2021/06/15 08:14:37;;;;;;;10.68;4.45;;;28.30;81.30;;;;;;5066831;28;20028;-82
2021/06/15 08:17:03;;;;;;;11.07;4.65;;;28.90;80.70;;;;;;5078315;28;20036;-84
2021/06/15 08:19:29;;;;;;;8.32;5.28;;;29.50;78.80;;;;;;5077944;28;20093;-86
2021/06/15 08:21:55;;;;;;;13.50;5.35;;;28.90;78.80;;;;;;5068979;28;20124;-83
2021/06/15 08:24:20;;;;;;;8.90;4.90;;;28.50;80.40;;;;;;5071984;28;20046;-83
2021/06/15 08:26:46;;;;;;;17.05;5.10;;;28.00;82.00;;;;;;5074060;28;20519;-85
2021/06/15 08:29:12;;;;;;;10.05;5.07;;;27.80;83.80;;;;;;5078213;28;20377;-86
2021/06/15 08:31:37;;;;;;;8.10;6.03;;;27.80;83.60;;;;;;5075329;28;20046;-84
2021/06/15 08:34:03;;;;;;;5.03;4.40;;;28.30;82.60;;;;;;5068258;28;20028;-84
2021/06/15 08:36:29;;;;;;;8.48;4.43;;;28.70;81.90;;;;;;5065675;28;20029;-83
2021/06/15 08:38:55;;;;;;;5.95;4.90;;;28.60;80.00;;;;;;5066253;28;20133;-82
2021/06/15 08:41:21;;;;;;;8.38;4.28;;;28.20;80.70;;;;;;5079210;28;20778;-84
2021/06/15 08:43:48;;;;;;;12.48;4.03;;;27.80;82.60;;;;;;5068358;28;20028;-84
2021/06/15 08:46:15;;;;;;;10.88;4.10;;;28.30;82.00;;;;;;5078805;28;20024;-84
2021/06/15 08:48:44;;;;;;;8.38;3.55;;;28.90;79.20;;;;;;5075009;28;20032;-83
2021/06/15 08:51:09;;;;;;;5.28;3.33;;;29.40;75.80;;;;;;5075214;28;20117;-84
2021/06/15 08:53:36;;;;;;;5.10;3.28;;;29.30;74.40;;;;;;5077432;28;20032;-84
2021/06/15 08:56:30;;;;;;;5.65;2.97;;;29.40;74.20;;;;;;5057823;28;20033;-84
2021/06/15 08:59:15;;;;;;;3.40;2.60;;;29.40;71.90;;;;;;5060045;28;20032;-84
2021/06/15 09:01:40;;;;;;;3.70;3.08;;;28.60;73.80;;;;;;5057878;28;20029;-84
2021/06/15 09:04:06;;;;;;;4.60;3.15;;;28.40;75.70;;;;;;5055651;28;20032;-83
2021/06/15 09:06:32;;;;;;;3.97;3.38;;;28.60;76.20;;;;;;5075055;28;20024;-84
2021/06/15 09:08:59;;;;;;;6.75;2.90;;;28.50;75.40;;;;;;5065173;28;20044;-84
2021/06/15 09:11:27;;;;;;;5.30;3.28;;;28.50;76.90;;;;;;5052385;28;20017;-83
2021/06/15 09:13:54;;;;;;;4.15;2.55;;;28.00;76.60;;;;;;5067654;28;20076;-84
2021/06/15 09:16:36;;;;;;;4.50;2.80;;;27.60;77.40;;;;;;5069745;28;20029;-84
2021/06/15 09:19:13;;;;;;;;;;;27.50;77.10;;;;;;5072678;28;20024;-84
2021/06/15 09:21:41;;;;;;;6.82;2.58;;;27.40;76.70;;;;;;5056481;28;19919;-83
2021/06/15 09:24:23;;;;;;;8.75;2.85;;;27.30;77.40;;;;;;5060688;28;20055;-82
2021/06/15 09:27:10;;;;;;;5.00;2.60;;;27.60;77.10;;;;;;5074298;28;21830;-85
2021/06/15 09:29:41;;;;;;;6.28;2.70;;;28.00;76.30;;;;;;5055982;28;20039;-85
2021/06/15 09:32:12;;;;;;;5.03;2.58;;;28.50;74.50;;;;;;5066459;28;20480;-85
2021/06/15 09:34:46;;;;;;;8.15;3.00;;;28.90;74.00;;;;;;5058935;28;20438;-84
2021/06/15 09:37:12;;;;;;;3.67;2.45;;;29.30;72.10;;;;;;5067085;28;20032;-84
2021/06/15 09:39:38;;;;;;;4.10;2.47;;;30.10;70.50;;;;;;5062583;28;20028;-83
2021/06/15 09:42:04;;;;;;;4.68;2.40;;;30.80;68.60;;;;;;5066325;28;20492;-85
2021/06/15 09:44:30;;;;;;;4.75;2.55;;;31.20;67.10;;;;;;5065271;28;20063;-84
2021/06/15 09:47:01;;;;;;;4.13;2.28;;;31.10;65.70;;;;;;5062552;28;20028;-85
2021/06/15 09:49:39;;;;;;;5.40;2.20;;;31.30;65.00;;;;;;5063335;28;20033;-84
2021/06/15 09:52:21;;;;;;;4.20;1.80;;;31.30;62.80;;;;;;5064707;28;20107;-83
2021/06/15 09:55:05;;;;;;;5.15;1.80;;;31.60;62.10;;;;;;5065391;28;20059;-84
2021/06/15 09:57:37;;;;;;;7.70;2.30;;;31.40;60.80;;;;;;5061307;28;20368;-84
2021/06/15 10:00:05;;;;;;;4.00;1.67;;;30.60;61.80;;;;;;5067112;28;20033;-83
2021/06/15 10:02:31;;;;;;;5.68;1.60;;;30.30;62.90;;;;;;5069221;28;20492;-82
2021/06/15 10:05:01;;;;;;;3.17;1.30;;;29.80;63.00;;;;;;5087287;28;20446;-83
2021/06/15 10:07:29;;;;;;;3.25;1.90;;;28.90;64.30;;;;;;5072076;28;20055;-85
2021/06/15 10:09:56;;;;;;;4.22;1.55;;;28.70;67.20;;;;;;5074711;28;20027;-79
2021/06/15 10:12:22;;;;;;;4.28;1.25;;;28.70;64.80;;;;;;5074361;28;20032;-84
2021/06/15 10:14:49;;;;;;;1.98;1.42;;;29.10;63.90;;;;;;5072990;28;20109;-83
2021/06/15 10:17:15;;;;;;;2.10;1.30;;;29.40;62.40;;;;;;5055732;28;20036;-83
2021/06/15 10:19:41;;;;;;;4.05;1.20;;;29.30;62.60;;;;;;5072320;28;20059;-83
2021/06/15 10:22:11;;;;;;;4.20;1.42;;;28.90;62.30;;;;;;5072823;28;20481;-79
2021/06/15 10:24:38;;;;;;;6.28;1.40;;;28.60;62.70;;;;;;5066489;28;20025;-78
2021/06/15 10:27:07;;;;;;;9.32;1.58;;;28.70;63.00;;;;;;5071561;28;20036;-78
2021/06/15 10:29:37;;;;;;;6.25;1.42;;;29.20;63.20;;;;;;5051857;28;20120;-80
2021/06/15 10:32:15;;;;;;;8.55;1.60;;;28.80;61.80;;;;;;5071525;28;20042;-79
2021/06/15 10:34:47;;;;;;;5.70;1.30;;;29.10;61.10;;;;;;5061221;28;20470;-78
2021/06/15 10:37:31;;;;;;;;;;;29.10;62.30;;;;;;5076864;28;20028;-78
2021/06/15 10:40:25;;;;;;;15.88;2.35;;;28.90;63.10;;;;;;5077184;28;20023;-79
2021/06/15 10:43:28;;;;;;;15.32;1.60;;;28.80;61.60;;;;;;5077188;28;20094;-80
2021/06/15 10:46:13;;;;;;;5.55;1.50;;;28.60;63.10;;;;;;5079322;28;20035;-80
2021/06/15 10:48:43;;;;;;;9.40;1.92;;;28.80;63.60;;;;;;5072114;28;20039;-80
2021/06/15 10:51:43;;;;;;;5.68;1.77;;;28.80;64.20;;;;;;5079696;28;20032;-80
2021/06/15 10:54:40;;;;;;;9.95;1.92;;;29.10;62.80;;;;;;5068395;28;20017;-81
2021/06/15 10:57:29;;;;;;;7.93;1.50;;;29.30;63.00;;;;;;5079236;28;20074;-81
2021/06/15 11:00:26;;;;;;;10.43;2.05;;;29.70;61.70;;;;;;5076151;28;20028;-80
2021/06/15 11:03:19;;;;;;;4.38;1.67;;;29.70;61.20;;;;;;5057698;28;20490;-80
2021/06/15 11:06:05;;;;;;;10.13;1.80;;;29.20;62.40;;;;;;5070621;28;20029;-81
2021/06/15 11:08:32;;;;;;;5.28;1.50;;;29.20;63.70;;;;;;5062762;28;20046;-78
2021/06/15 11:11:03;;;;;;;10.77;1.67;;;29.30;63.60;;;;;;5074622;28;20040;-78
2021/06/15 11:13:40;;;;;;;3.38;1.73;;;29.70;64.20;;;;;;5076117;28;20044;-77
2021/06/15 11:16:06;;;;;;;4.53;1.63;;;30.10;61.50;;;;;;5068758;28;20024;-77
2021/06/15 11:18:32;;;;;;;2.45;1.70;;;29.80;61.60;;;;;;5067078;28;20038;-77
2021/06/15 11:20:58;;;;;;;4.28;1.80;;;29.30;63.20;;;;;;5068451;28;20115;-77
2021/06/15 11:23:26;;;;;;;2.53;1.40;;;29.50;62.90;;;;;;5058367;28;20028;-77
2021/06/15 11:26:01;;;;;;;3.15;1.45;;;29.90;62.50;;;;;;5069288;28;20040;-77
2021/06/15 11:28:41;;;;;;;5.35;1.58;;;29.90;62.90;;;;;;5070880;28;20389;-77
2021/06/15 11:31:19;;;;;;;8.57;1.38;;;30.30;60.40;;;;;;5067686;28;20075;-78
2021/06/15 11:34:02;;;;;;;4.88;1.70;;;30.50;61.00;;;;;;5065725;28;20362;-79
2021/06/15 11:36:40;;;;;;;4.82;1.90;;;31.20;59.90;;;;;;5072346;28;20031;-79
2021/06/15 11:42:08;;;;;;;1.55;1.10;;;32.60;57.40;;;;;;5073946;28;20085;-79
2021/06/15 11:45:06;;;;;;;2.03;1.58;;;32.50;56.90;;;;;;5073900;28;20086;-79
2021/06/15 11:48:09;;;;;;;4.22;1.73;;;31.80;57.30;;;;;;5074110;28;20032;-77
2021/06/15 11:50:37;;;;;;;7.00;1.75;;;31.70;58.30;;;;;;4991738;28;20022;-78
2021/06/15 11:53:18;;;;;;;5.82;1.95;;;31.50;58.20;;;;;;5057184;28;20033;-78
2021/06/15 11:55:48;;;;;;;4.07;1.75;;;31.20;58.60;;;;;;5057633;28;20039;-78
2021/06/15 11:58:29;;;;;;;11.02;1.75;;;31.20;58.70;;;;;;5073384;28;20035;-79
2021/06/15 12:01:06;;;;;;;5.88;1.77;;;31.50;58.00;;;;;;5067466;28;20182;-80
2021/06/15 12:03:45;;;;;;;7.80;1.80;;;32.00;57.40;;;;;;5065324;28;20020;-80
2021/06/15 12:06:13;;;;;;;8.63;1.80;;;32.30;57.10;;;;;;5074652;28;20020;-80
2021/06/15 12:08:43;;;;;;;5.60;1.63;;;32.80;56.70;;;;;;5074641;28;20052;-81
2021/06/15 12:11:12;;;;;;;7.53;2.28;;;33.00;55.20;;;;;;5076430;28;20024;-80
2021/06/15 12:13:39;;;;;;;3.08;1.85;;;33.20;53.20;;;;;;5076793;28;20599;-86
2021/06/15 12:16:12;;;;;;;5.03;1.90;;;32.90;54.80;;;;;;5077310;28;20028;-83
2021/06/15 12:18:39;;;;;;;2.03;1.60;;;32.90;54.40;;;;;;5078905;28;20048;-82
2021/06/15 12:21:08;;;;;;;3.33;2.33;;;32.60;55.10;;;;;;5059687;28;20037;-83
2021/06/15 12:23:49;;;;;;;2.75;1.75;;;33.00;53.60;;;;;;5066824;28;20098;-83
2021/06/15 12:26:28;;;;;;;2.55;1.67;;;32.70;54.10;;;;;;5080241;28;20033;-83
2021/06/15 12:28:59;;;;;;;4.43;3.42;;;32.70;55.90;;;;;;5064129;28;20028;-82
2021/06/15 12:31:37;;;;;;;6.27;1.83;;;32.50;55.30;;;;;;5067438;28;20042;-83
2021/06/15 12:34:08;;;;;;;2.38;1.85;;;32.50;55.60;;;;;;5058512;28;20071;-83
2021/06/15 12:36:37;;;;;;;4.13;2.38;;;32.10;56.00;;;;;;5060171;28;20036;-83
2021/06/15 12:39:19;;;;;;;9.38;1.92;;;32.20;54.20;;;;;;5076355;28;20489;-84
2021/06/15 12:41:47;;;;;;;;;;;32.60;54.60;;;;;;5080682;28;20032;-83
2021/06/15 12:44:12;;;;;;;6.03;1.80;;;33.00;54.00;;;;;;5078897;28;19916;-83
2021/06/15 12:46:40;;;;;;;6.18;1.65;;;33.10;53.30;;;;;;5077040;28;20020;-83
2021/06/15 12:49:20;;;;;;;5.18;1.60;;;33.00;52.70;;;;;;5079158;28;20020;-83
2021/06/15 12:51:58;;;;;;;10.52;2.30;;;32.80;53.40;;;;;;5079367;28;20074;-84
2021/06/15 12:54:27;;;;;;;3.58;1.85;;;32.90;53.00;;;;;;5069517;28;20116;-84
2021/06/15 12:57:06;;;;;;;6.82;2.00;;;32.70;53.50;;;;;;5060002;28;20025;-84
2021/06/15 12:59:34;;;;;;;4.95;2.15;;;32.90;54.10;;;;;;5060628;28;20105;-83
2021/06/15 13:02:16;;;;;;;4.80;1.77;;;33.10;52.80;;;;;;5076721;28;20033;-83